Shinshinmaru — JD3332 — position and weather

sailwx.info

Track history (hours):
 
Tides and Currents Weather Stations Pressure Air Temp Water Temp Dewpoint Dewpoint Depression Visibility Wind Speed Wind Dir Waves Ship Positions

Shinshinmaru

Last reported at 2017-Nov-16 11:22 UTC. Time now 2017-Nov-18 06:27 UTC.
Position N 34°57' E 139°30'.

Length 74 m; draft 5 m.

Type: Tanker. MMSI: 431003616.

Date/timePositionNaut miles runAvg speedWind from/ knotsBaromVisibWave heightAir tempDewpointWater temp
2017-Nov-16 11:22N 34°57' E 139°30'411.4
2017-Nov-16 10:59N 34°60' E 139°34'611.5
2017-Nov-16 10:30N 35°03' E 139°39'611.2
2017-Nov-16 10:00N 35°07' E 139°44'612.1
2017-Nov-16 09:30N 35°13' E 139°46'612.5
2017-Nov-16 09:00N 35°19' E 139°43'611.6
2017-Nov-16 08:30N 35°24' E 139°43'612.2
2017-Nov-16 08:00N 35°28' E 139°49'11 1.2
2017-Nov-15 22:41N 35°33' E 140°01'0 0.0
2017-Nov-15 22:21N 35°33' E 140°01'0 0.0
2017-Nov-15 21:57N 35°33' E 140°01'0 0.0
2017-Nov-15 21:29N 35°33' E 140°01'0 0.0
2017-Nov-15 20:59N 35°33' E 140°01'4 0.5
2017-Nov-15 12:41N 35°31' E 139°56'211.9
2017-Nov-15 12:29N 35°30' E 139°53'611.9
2017-Nov-15 12:00N 35°26' E 139°48'611.6
2017-Nov-15 11:30N 35°21' E 139°45'510.4
2017-Nov-15 11:00N 35°16' E 139°47'510.6
2017-Nov-15 10:30N 35°10' E 139°46'611.9
2017-Nov-15 10:00N 35°05' E 139°43'612.2
2017-Nov-15 09:30N 35°01' E 139°37'  
Track history (hours):
 
Tides and Currents Weather Stations Pressure Air Temp Water Temp Dewpoint Dewpoint Depression Visibility Wind Speed Wind Dir Waves Ship Positions

Shinshinmaru

Last reported at 2017-Nov-16 11:22 UTC. Time now 2017-Nov-18 06:27 UTC.
Position N 34°57' E 139°30'.

Length 74 m; draft 5 m.

Type: Tanker. MMSI: 431003616.

Date/timePositionNaut miles runAvg speedWind from/ knotsBaromVisibWave heightAir tempDewpointWater temp
2017-Nov-16 11:22N 34°57' E 139°30'411.4
2017-Nov-16 10:59N 34°60' E 139°34'611.5
2017-Nov-16 10:30N 35°03' E 139°39'611.2
2017-Nov-16 10:00N 35°07' E 139°44'612.1
2017-Nov-16 09:30N 35°13' E 139°46'612.5
2017-Nov-16 09:00N 35°19' E 139°43'611.6
2017-Nov-16 08:30N 35°24' E 139°43'612.2
2017-Nov-16 08:00N 35°28' E 139°49'11 1.2
2017-Nov-15 22:41N 35°33' E 140°01'0 0.0
2017-Nov-15 22:21N 35°33' E 140°01'0 0.0
2017-Nov-15 21:57N 35°33' E 140°01'0 0.0
2017-Nov-15 21:29N 35°33' E 140°01'0 0.0
2017-Nov-15 20:59N 35°33' E 140°01'4 0.5
2017-Nov-15 12:41N 35°31' E 139°56'211.9
2017-Nov-15 12:29N 35°30' E 139°53'611.9
2017-Nov-15 12:00N 35°26' E 139°48'611.6
2017-Nov-15 11:30N 35°21' E 139°45'510.4
2017-Nov-15 11:00N 35°16' E 139°47'510.6
2017-Nov-15 10:30N 35°10' E 139°46'611.9
2017-Nov-15 10:00N 35°05' E 139°43'612.2
2017-Nov-15 09:30N 35°01' E 139°37'  

Dump ship's entire track history